sensor_id;sensor_type;location;lat;lon;timestamp;temperature;humidity
15638;DHT22;26604;53.596;10.042;2024-01-11T00:02:08;-1.00;99.90
15638;DHT22;26604;53.596;10.042;2024-01-11T00:04:36;-0.90;99.90
15638;DHT22;26604;53.596;10.042;2024-01-11T00:07:03;-0.90;99.90
15638;DHT22;26604;53.596;10.042;2024-01-11T00:09:30;-0.90;99.90
15638;DHT22;26604;53.596;10.042;2024-01-11T00:11:57;-0.90;99.90
15638;DHT22;26604;53.596;10.042;2024-01-11T00:14:24;-0.90;99.90
15638;DHT22;26604;53.596;10.042;2024-01-11T00:16:51;-0.90;99.90
15638;DHT22;26604;53.596;10.042;2024-01-11T00:19:18;-0.80;99.90
15638;DHT22;26604;53.596;10.042;2024-01-11T00:21:46;-0.80;99.90
15638;DHT22;26604;53.596;10.042;2024-01-11T00:24:13;-0.80;99.90
15638;DHT22;26604;53.596;10.042;2024-01-11T00:26:40;-0.70;99.90
15638;DHT22;26604;53.596;10.042;2024-01-11T00:29:07;-0.80;99.90
15638;DHT22;26604;53.596;10.042;2024-01-11T00:31:34;-0.80;99.90
15638;DHT22;26604;53.596;10.042;2024-01-11T00:34:01;-0.80;99.90
15638;DHT22;26604;53.596;10.042;2024-01-11T00:36:28;-0.70;99.90
15638;DHT22;26604;53.596;10.042;2024-01-11T00:38:56;-0.70;99.90
15638;DHT22;26604;53.596;10.042;2024-01-11T00:41:23;-0.70;99.90
15638;DHT22;26604;53.596;10.042;2024-01-11T00:43:50;-0.70;99.90
15638;DHT22;26604;53.596;10.042;2024-01-11T00:46:17;-0.70;99.90
15638;DHT22;26604;53.596;10.042;2024-01-11T00:48:43;-0.70;99.90
15638;DHT22;26604;53.596;10.042;2024-01-11T00:51:10;-0.60;99.90
15638;DHT22;26604;53.596;10.042;2024-01-11T00:53:37;-0.60;99.90
15638;DHT22;26604;53.596;10.042;2024-01-11T00:56:05;-0.60;99.90
15638;DHT22;26604;53.596;10.042;2024-01-11T00:58:32;-0.70;99.90
15638;DHT22;26604;53.596;10.042;2024-01-11T01:00:59;-0.70;99.90
15638;DHT22;26604;53.596;10.042;2024-01-11T01:03:26;-0.70;99.90
15638;DHT22;26604;53.596;10.042;2024-01-11T01:05:53;-0.70;99.90
15638;DHT22;26604;53.596;10.042;2024-01-11T01:08:20;-0.70;99.90
15638;DHT22;26604;53.596;10.042;2024-01-11T01:10:46;-0.70;99.90
15638;DHT22;26604;53.596;10.042;2024-01-11T01:13:14;-0.80;99.90
15638;DHT22;26604;53.596;10.042;2024-01-11T01:15:41;-0.70;99.90
15638;DHT22;26604;53.596;10.042;2024-01-11T01:18:08;-0.70;99.90
15638;DHT22;26604;53.596;10.042;2024-01-11T01:20:35;-0.70;99.90
15638;DHT22;26604;53.596;10.042;2024-01-11T01:23:02;-0.70;99.90
15638;DHT22;26604;53.596;10.042;2024-01-11T01:25:29;-0.70;99.90
15638;DHT22;26604;53.596;10.042;2024-01-11T01:27:56;-0.70;99.90
15638;DHT22;26604;53.596;10.042;2024-01-11T01:30:26;-0.80;99.90
15638;DHT22;26604;53.596;10.042;2024-01-11T01:32:53;-0.80;99.90
15638;DHT22;26604;53.596;10.042;2024-01-11T01:35:20;-0.80;99.90
15638;DHT22;26604;53.596;10.042;2024-01-11T01:37:46;-0.70;99.90
15638;DHT22;26604;53.596;10.042;2024-01-11T01:40:13;-0.70;99.90
15638;DHT22;26604;53.596;10.042;2024-01-11T01:42:42;-0.80;99.90
15638;DHT22;26604;53.596;10.042;2024-01-11T01:45:09;-0.80;99.90
15638;DHT22;26604;53.596;10.042;2024-01-11T01:47:38;-0.80;99.90
15638;DHT22;26604;53.596;10.042;2024-01-11T01:50:07;-0.80;99.90
15638;DHT22;26604;53.596;10.042;2024-01-11T01:52:34;-0.80;99.90
15638;DHT22;26604;53.596;10.042;2024-01-11T01:55:02;-0.80;99.90
15638;DHT22;26604;53.596;10.042;2024-01-11T01:57:30;-0.80;99.90
15638;DHT22;26604;53.596;10.042;2024-01-11T01:59:59;-0.70;99.90
15638;DHT22;26604;53.596;10.042;2024-01-11T02:02:27;-0.80;99.90
15638;DHT22;26604;53.596;10.042;2024-01-11T02:04:57;-0.90;99.90
15638;DHT22;26604;53.596;10.042;2024-01-11T02:07:24;-0.90;99.90
15638;DHT22;26604;53.596;10.042;2024-01-11T02:09:52;-0.90;99.90
15638;DHT22;26604;53.596;10.042;2024-01-11T02:12:18;-0.90;99.90
15638;DHT22;26604;53.596;10.042;2024-01-11T02:14:46;-0.90;99.90
15638;DHT22;26604;53.596;10.042;2024-01-11T02:17:13;-0.90;99.90
15638;DHT22;26604;53.596;10.042;2024-01-11T02:19:40;-0.90;99.90
15638;DHT22;26604;53.596;10.042;2024-01-11T02:22:22;-0.90;99.90
15638;DHT22;26604;53.596;10.042;2024-01-11T02:24:52;-0.90;99.90
15638;DHT22;26604;53.596;10.042;2024-01-11T02:27:19;-0.90;99.90
15638;DHT22;26604;53.596;10.042;2024-01-11T02:29:45;-0.90;99.90
15638;DHT22;26604;53.596;10.042;2024-01-11T02:32:12;-0.90;99.90
15638;DHT22;26604;53.596;10.042;2024-01-11T02:34:39;-0.90;99.90
15638;DHT22;26604;53.596;10.042;2024-01-11T02:37:06;-0.80;99.90
15638;DHT22;26604;53.596;10.042;2024-01-11T02:39:33;-0.80;99.90
15638;DHT22;26604;53.596;10.042;2024-01-11T02:42:02;-0.80;99.90
15638;DHT22;26604;53.596;10.042;2024-01-11T02:44:29;-0.80;99.90
15638;DHT22;26604;53.596;10.042;2024-01-11T02:46:56;-0.80;99.90
15638;DHT22;26604;53.596;10.042;2024-01-11T02:49:22;-0.90;99.90
15638;DHT22;26604;53.596;10.042;2024-01-11T02:51:49;-0.90;99.90
15638;DHT22;26604;53.596;10.042;2024-01-11T02:54:16;-1.00;99.90
15638;DHT22;26604;53.596;10.042;2024-01-11T02:56:43;-1.00;99.90
15638;DHT22;26604;53.596;10.042;2024-01-11T02:59:11;-1.00;99.90
15638;DHT22;26604;53.596;10.042;2024-01-11T03:01:38;-1.00;99.90
15638;DHT22;26604;53.596;10.042;2024-01-11T03:04:05;-0.90;99.90
15638;DHT22;26604;53.596;10.042;2024-01-11T03:06:32;-0.90;99.90
15638;DHT22;26604;53.596;10.042;2024-01-11T03:08:59;-0.90;99.90
15638;DHT22;26604;53.596;10.042;2024-01-11T03:11:26;-0.10;99.90
15638;DHT22;26604;53.596;10.042;2024-01-11T03:13:53;-0.80;99.90
15638;DHT22;26604;53.596;10.042;2024-01-11T03:16:22;-0.90;99.90
15638;DHT22;26604;53.596;10.042;2024-01-11T03:18:49;-0.90;99.90
15638;DHT22;26604;53.596;10.042;2024-01-11T03:21:16;-0.90;99.90
15638;DHT22;26604;53.596;10.042;2024-01-11T03:23:43;-1.00;99.90
15638;DHT22;26604;53.596;10.042;2024-01-11T03:26:14;-0.90;99.90
15638;DHT22;26604;53.596;10.042;2024-01-11T03:28:40;-0.90;99.90
15638;DHT22;26604;53.596;10.042;2024-01-11T03:31:07;-0.90;99.90
15638;DHT22;26604;53.596;10.042;2024-01-11T03:33:36;-0.90;99.90
15638;DHT22;26604;53.596;10.042;2024-01-11T03:36:07;-0.90;99.90
15638;DHT22;26604;53.596;10.042;2024-01-11T03:38:34;-0.80;99.90
15638;DHT22;26604;53.596;10.042;2024-01-11T03:41:01;-0.80;99.90
15638;DHT22;26604;53.596;10.042;2024-01-11T03:43:28;-0.80;99.90
15638;DHT22;26604;53.596;10.042;2024-01-11T03:45:54;-0.90;99.90
15638;DHT22;26604;53.596;10.042;2024-01-11T03:48:21;-0.90;99.90
15638;DHT22;26604;53.596;10.042;2024-01-11T03:50:50;-0.90;99.90
15638;DHT22;26604;53.596;10.042;2024-01-11T03:53:17;-0.90;99.90
15638;DHT22;26604;53.596;10.042;2024-01-11T03:55:44;-0.90;99.90
15638;DHT22;26604;53.596;10.042;2024-01-11T03:58:10;-0.80;99.90
15638;DHT22;26604;53.596;10.042;2024-01-11T04:00:37;-0.80;99.90
15638;DHT22;26604;53.596;10.042;2024-01-11T04:03:06;-0.80;99.90
15638;DHT22;26604;53.596;10.042;2024-01-11T04:05:33;-0.80;99.90
15638;DHT22;26604;53.596;10.042;2024-01-11T04:08:04;-0.80;99.90
15638;DHT22;26604;53.596;10.042;2024-01-11T04:10:31;-0.80;99.90
15638;DHT22;26604;53.596;10.042;2024-01-11T04:12:58;-0.80;99.90
15638;DHT22;26604;53.596;10.042;2024-01-11T04:15:25;-0.70;99.90
15638;DHT22;26604;53.596;10.042;2024-01-11T04:17:52;-0.70;99.90
15638;DHT22;26604;53.596;10.042;2024-01-11T04:20:19;-0.70;99.90
15638;DHT22;26604;53.596;10.042;2024-01-11T04:22:45;-0.70;99.90
15638;DHT22;26604;53.596;10.042;2024-01-11T04:25:14;-0.70;99.90
15638;DHT22;26604;53.596;10.042;2024-01-11T04:27:41;-0.50;99.90
15638;DHT22;26604;53.596;10.042;2024-01-11T04:30:08;-0.70;99.90
15638;DHT22;26604;53.596;10.042;2024-01-11T04:32:35;-0.70;99.90
15638;DHT22;26604;53.596;10.042;2024-01-11T04:35:03;-0.70;99.90
15638;DHT22;26604;53.596;10.042;2024-01-11T04:37:30;-0.70;99.90
15638;DHT22;26604;53.596;10.042;2024-01-11T04:39:57;-0.70;99.90
15638;DHT22;26604;53.596;10.042;2024-01-11T04:42:27;-0.70;99.90
15638;DHT22;26604;53.596;10.042;2024-01-11T04:44:54;-0.70;99.90
15638;DHT22;26604;53.596;10.042;2024-01-11T04:47:21;-0.80;99.90
15638;DHT22;26604;53.596;10.042;2024-01-11T04:49:48;-0.80;99.90
15638;DHT22;26604;53.596;10.042;2024-01-11T04:52:15;-0.70;99.90
15638;DHT22;26604;53.596;10.042;2024-01-11T04:54:41;-0.70;99.90
15638;DHT22;26604;53.596;10.042;2024-01-11T04:57:08;-0.70;99.90
15638;DHT22;26604;53.596;10.042;2024-01-11T04:59:36;-0.70;99.90
15638;DHT22;26604;53.596;10.042;2024-01-11T05:02:03;-0.60;99.90
15638;DHT22;26604;53.596;10.042;2024-01-11T05:04:30;-0.70;99.90
15638;DHT22;26604;53.596;10.042;2024-01-11T05:06:57;-0.80;99.90
15638;DHT22;26604;53.596;10.042;2024-01-11T05:09:24;-0.80;99.90
15638;DHT22;26604;53.596;10.042;2024-01-11T05:11:51;-0.90;99.90
15638;DHT22;26604;53.596;10.042;2024-01-11T05:14:17;-0.90;99.90
15638;DHT22;26604;53.596;10.042;2024-01-11T05:16:46;-0.90;99.90
15638;DHT22;26604;53.596;10.042;2024-01-11T05:19:11;-0.80;99.90
15638;DHT22;26604;53.596;10.042;2024-01-11T05:21:38;-0.80;99.90
15638;DHT22;26604;53.596;10.042;2024-01-11T05:24:05;-0.80;99.90
15638;DHT22;26604;53.596;10.042;2024-01-11T05:26:32;-0.80;99.90
15638;DHT22;26604;53.596;10.042;2024-01-11T05:28:59;-0.80;99.90
15638;DHT22;26604;53.596;10.042;2024-01-11T05:31:26;-0.80;99.90
15638;DHT22;26604;53.596;10.042;2024-01-11T05:33:54;-0.80;99.90
15638;DHT22;26604;53.596;10.042;2024-01-11T05:36:21;-0.80;99.90
15638;DHT22;26604;53.596;10.042;2024-01-11T05:38:48;-0.80;99.90
15638;DHT22;26604;53.596;10.042;2024-01-11T05:41:15;-0.80;99.90
15638;DHT22;26604;53.596;10.042;2024-01-11T05:43:42;-0.80;99.90
15638;DHT22;26604;53.596;10.042;2024-01-11T05:46:09;-0.80;99.90
15638;DHT22;26604;53.596;10.042;2024-01-11T05:48:36;-0.70;99.90
15638;DHT22;26604;53.596;10.042;2024-01-11T05:51:04;-0.70;99.90
15638;DHT22;26604;53.596;10.042;2024-01-11T05:53:31;-0.70;99.90
15638;DHT22;26604;53.596;10.042;2024-01-11T05:56:00;-0.70;99.90
15638;DHT22;26604;53.596;10.042;2024-01-11T05:58:28;-0.70;99.90
15638;DHT22;26604;53.596;10.042;2024-01-11T06:00:55;-0.70;99.90
15638;DHT22;26604;53.596;10.042;2024-01-11T06:03:22;-0.70;99.90
15638;DHT22;26604;53.596;10.042;2024-01-11T06:05:49;-0.70;99.90
15638;DHT22;26604;53.596;10.042;2024-01-11T06:08:17;-0.70;99.90
15638;DHT22;26604;53.596;10.042;2024-01-11T06:10:44;-0.60;99.90
15638;DHT22;26604;53.596;10.042;2024-01-11T06:13:11;-0.60;99.90
15638;DHT22;26604;53.596;10.042;2024-01-11T06:15:38;-0.60;99.90
15638;DHT22;26604;53.596;10.042;2024-01-11T06:18:05;-0.60;99.90
15638;DHT22;26604;53.596;10.042;2024-01-11T06:20:32;-0.50;99.90
15638;DHT22;26604;53.596;10.042;2024-01-11T06:22:59;-0.50;99.90
15638;DHT22;26604;53.596;10.042;2024-01-11T06:25:27;-0.50;99.90
15638;DHT22;26604;53.596;10.042;2024-01-11T06:27:54;-0.60;99.90
15638;DHT22;26604;53.596;10.042;2024-01-11T06:30:21;-0.50;99.90
15638;DHT22;26604;53.596;10.042;2024-01-11T06:32:48;-0.50;99.90
15638;DHT22;26604;53.596;10.042;2024-01-11T06:35:15;-0.50;99.90
15638;DHT22;26604;53.596;10.042;2024-01-11T06:37:41;-0.50;99.90
15638;DHT22;26604;53.596;10.042;2024-01-11T06:40:09;-0.50;99.90
15638;DHT22;26604;53.596;10.042;2024-01-11T06:42:37;-0.60;99.90
15638;DHT22;26604;53.596;10.042;2024-01-11T06:45:04;-0.60;99.90
15638;DHT22;26604;53.596;10.042;2024-01-11T06:47:31;-0.50;99.90
15638;DHT22;26604;53.596;10.042;2024-01-11T06:49:58;-0.50;99.90
15638;DHT22;26604;53.596;10.042;2024-01-11T06:52:26;-0.50;99.90
15638;DHT22;26604;53.596;10.042;2024-01-11T06:54:52;-0.60;99.90
15638;DHT22;26604;53.596;10.042;2024-01-11T06:57:19;-0.50;99.90
15638;DHT22;26604;53.596;10.042;2024-01-11T06:59:47;-0.50;99.90
15638;DHT22;26604;53.596;10.042;2024-01-11T07:02:16;-0.50;99.90
15638;DHT22;26604;53.596;10.042;2024-01-11T07:04:56;-0.60;99.90
15638;DHT22;26604;53.596;10.042;2024-01-11T07:07:23;-0.60;99.90
15638;DHT22;26604;53.596;10.042;2024-01-11T07:09:50;-0.50;99.90
15638;DHT22;26604;53.596;10.042;2024-01-11T07:12:20;-0.60;99.90
15638;DHT22;26604;53.596;10.042;2024-01-11T07:14:48;-0.60;99.90
15638;DHT22;26604;53.596;10.042;2024-01-11T07:17:15;-0.50;99.90
15638;DHT22;26604;53.596;10.042;2024-01-11T07:22:49;-0.40;99.90
15638;DHT22;26604;53.596;10.042;2024-01-11T07:25:16;-0.40;99.90
15638;DHT22;26604;53.596;10.042;2024-01-11T07:27:43;-0.40;99.90
15638;DHT22;26604;53.596;10.042;2024-01-11T07:30:12;-0.40;99.90
15638;DHT22;26604;53.596;10.042;2024-01-11T07:32:39;-0.40;99.90
15638;DHT22;26604;53.596;10.042;2024-01-11T07:35:07;-0.40;99.90
15638;DHT22;26604;53.596;10.042;2024-01-11T07:37:36;-0.40;99.90
15638;DHT22;26604;53.596;10.042;2024-01-11T07:40:03;-0.40;99.90
15638;DHT22;26604;53.596;10.042;2024-01-11T07:42:30;-0.30;99.90
15638;DHT22;26604;53.596;10.042;2024-01-11T07:44:57;-0.30;99.90
15638;DHT22;26604;53.596;10.042;2024-01-11T07:47:25;-0.20;99.90
15638;DHT22;26604;53.596;10.042;2024-01-11T07:49:52;-0.30;99.90
15638;DHT22;26604;53.596;10.042;2024-01-11T07:52:19;-0.30;99.90
15638;DHT22;26604;53.596;10.042;2024-01-11T07:54:46;-0.30;99.90
15638;DHT22;26604;53.596;10.042;2024-01-11T07:57:13;-0.20;99.90
15638;DHT22;26604;53.596;10.042;2024-01-11T07:59:40;-0.10;99.90
15638;DHT22;26604;53.596;10.042;2024-01-11T08:02:07;0.00;99.90
15638;DHT22;26604;53.596;10.042;2024-01-11T08:04:35;0.00;99.90
15638;DHT22;26604;53.596;10.042;2024-01-11T08:07:04;0.00;99.90
15638;DHT22;26604;53.596;10.042;2024-01-11T08:09:31;0.00;99.90
15638;DHT22;26604;53.596;10.042;2024-01-11T08:11:58;0.10;99.90
15638;DHT22;26604;53.596;10.042;2024-01-11T08:14:24;0.10;99.90
15638;DHT22;26604;53.596;10.042;2024-01-11T08:16:51;0.20;99.90
15638;DHT22;26604;53.596;10.042;2024-01-11T08:19:19;0.20;99.90
15638;DHT22;26604;53.596;10.042;2024-01-11T08:21:47;0.30;99.90
15638;DHT22;26604;53.596;10.042;2024-01-11T08:24:14;0.30;99.90
15638;DHT22;26604;53.596;10.042;2024-01-11T08:26:41;0.40;99.90
15638;DHT22;26604;53.596;10.042;2024-01-11T08:29:08;0.40;99.90
15638;DHT22;26604;53.596;10.042;2024-01-11T08:31:35;0.50;99.90
15638;DHT22;26604;53.596;10.042;2024-01-11T08:34:01;0.60;99.90
15638;DHT22;26604;53.596;10.042;2024-01-11T08:36:31;0.60;99.90
15638;DHT22;26604;53.596;10.042;2024-01-11T08:38:59;0.70;99.90
15638;DHT22;26604;53.596;10.042;2024-01-11T08:41:26;0.70;99.90
15638;DHT22;26604;53.596;10.042;2024-01-11T08:43:53;0.70;99.90
15638;DHT22;26604;53.596;10.042;2024-01-11T08:46:24;0.70;99.90
15638;DHT22;26604;53.596;10.042;2024-01-11T08:48:51;0.80;99.90
15638;DHT22;26604;53.596;10.042;2024-01-11T08:51:18;0.90;99.90
15638;DHT22;26604;53.596;10.042;2024-01-11T08:53:45;0.90;99.90
15638;DHT22;26604;53.596;10.042;2024-01-11T08:56:13;0.90;99.90
15638;DHT22;26604;53.596;10.042;2024-01-11T08:58:42;1.00;99.90
15638;DHT22;26604;53.596;10.042;2024-01-11T09:01:09;1.00;99.90
15638;DHT22;26604;53.596;10.042;2024-01-11T09:03:36;1.00;99.90
15638;DHT22;26604;53.596;10.042;2024-01-11T09:06:03;1.00;99.90
15638;DHT22;26604;53.596;10.042;2024-01-11T09:08:30;1.00;99.90
15638;DHT22;26604;53.596;10.042;2024-01-11T09:10:57;1.00;99.90
15638;DHT22;26604;53.596;10.042;2024-01-11T09:13:27;1.10;99.90
15638;DHT22;26604;53.596;10.042;2024-01-11T09:15:54;1.10;99.90
15638;DHT22;26604;53.596;10.042;2024-01-11T09:18:21;1.10;99.90
15638;DHT22;26604;53.596;10.042;2024-01-11T09:20:48;1.20;99.90
15638;DHT22;26604;53.596;10.042;2024-01-11T09:23:16;1.20;99.90
15638;DHT22;26604;53.596;10.042;2024-01-11T09:25:43;1.20;99.90
15638;DHT22;26604;53.596;10.042;2024-01-11T09:28:10;1.30;99.90
15638;DHT22;26604;53.596;10.042;2024-01-11T09:30:38;1.30;99.90
15638;DHT22;26604;53.596;10.042;2024-01-11T09:33:05;1.40;99.90
15638;DHT22;26604;53.596;10.042;2024-01-11T09:35:32;1.30;99.90
15638;DHT22;26604;53.596;10.042;2024-01-11T09:37:59;1.40;99.90
15638;DHT22;26604;53.596;10.042;2024-01-11T09:40:26;1.50;99.90
15638;DHT22;26604;53.596;10.042;2024-01-11T09:42:53;1.50;99.90
15638;DHT22;26604;53.596;10.042;2024-01-11T09:45:20;1.50;99.90
15638;DHT22;26604;53.596;10.042;2024-01-11T09:47:49;1.50;99.90
15638;DHT22;26604;53.596;10.042;2024-01-11T09:50:18;1.60;99.90
15638;DHT22;26604;53.596;10.042;2024-01-11T09:52:46;1.60;99.90
15638;DHT22;26604;53.596;10.042;2024-01-11T09:55:14;1.70;99.90
15638;DHT22;26604;53.596;10.042;2024-01-11T09:57:44;1.60;99.90
15638;DHT22;26604;53.596;10.042;2024-01-11T10:00:14;1.70;99.90
15638;DHT22;26604;53.596;10.042;2024-01-11T10:02:44;1.80;99.90
15638;DHT22;26604;53.596;10.042;2024-01-11T10:05:13;1.80;99.90
15638;DHT22;26604;53.596;10.042;2024-01-11T10:07:40;1.90;99.90
15638;DHT22;26604;53.596;10.042;2024-01-11T10:10:08;1.90;99.90
15638;DHT22;26604;53.596;10.042;2024-01-11T10:12:35;2.00;99.90
15638;DHT22;26604;53.596;10.042;2024-01-11T10:15:05;2.00;99.90
15638;DHT22;26604;53.596;10.042;2024-01-11T10:17:35;2.00;99.90
15638;DHT22;26604;53.596;10.042;2024-01-11T10:20:02;2.00;99.90
15638;DHT22;26604;53.596;10.042;2024-01-11T10:22:31;2.00;99.90
15638;DHT22;26604;53.596;10.042;2024-01-11T10:25:08;1.90;99.90
15638;DHT22;26604;53.596;10.042;2024-01-11T10:27:36;2.00;99.90
15638;DHT22;26604;53.596;10.042;2024-01-11T10:30:04;2.00;99.90
15638;DHT22;26604;53.596;10.042;2024-01-11T10:32:33;2.10;99.90
15638;DHT22;26604;53.596;10.042;2024-01-11T10:35:01;2.20;99.90
15638;DHT22;26604;53.596;10.042;2024-01-11T10:37:32;2.30;99.90
15638;DHT22;26604;53.596;10.042;2024-01-11T10:40:03;2.30;99.90
15638;DHT22;26604;53.596;10.042;2024-01-11T10:42:36;2.30;99.90
15638;DHT22;26604;53.596;10.042;2024-01-11T10:45:10;2.30;99.90
15638;DHT22;26604;53.596;10.042;2024-01-11T10:47:47;2.30;99.90
15638;DHT22;26604;53.596;10.042;2024-01-11T10:50:15;2.30;99.90
15638;DHT22;26604;53.596;10.042;2024-01-11T10:52:54;2.40;99.90
15638;DHT22;26604;53.596;10.042;2024-01-11T10:55:23;2.30;99.90
15638;DHT22;26604;53.596;10.042;2024-01-11T10:57:51;2.30;99.90
15638;DHT22;26604;53.596;10.042;2024-01-11T11:00:24;2.20;99.90
15638;DHT22;26604;53.596;10.042;2024-01-11T11:02:52;2.20;99.90
15638;DHT22;26604;53.596;10.042;2024-01-11T11:05:21;2.10;99.90
15638;DHT22;26604;53.596;10.042;2024-01-11T11:07:51;2.10;99.90
15638;DHT22;26604;53.596;10.042;2024-01-11T11:10:19;2.10;99.90
15638;DHT22;26604;53.596;10.042;2024-01-11T11:12:48;2.10;99.90
15638;DHT22;26604;53.596;10.042;2024-01-11T11:15:15;2.10;99.90
15638;DHT22;26604;53.596;10.042;2024-01-11T11:17:43;2.10;99.90
15638;DHT22;26604;53.596;10.042;2024-01-11T11:20:11;2.10;99.90
15638;DHT22;26604;53.596;10.042;2024-01-11T11:22:40;2.10;99.90
15638;DHT22;26604;53.596;10.042;2024-01-11T11:25:10;2.20;99.90
15638;DHT22;26604;53.596;10.042;2024-01-11T11:27:37;2.20;99.90
15638;DHT22;26604;53.596;10.042;2024-01-11T11:30:04;2.30;99.90
15638;DHT22;26604;53.596;10.042;2024-01-11T11:32:35;2.30;99.90
15638;DHT22;26604;53.596;10.042;2024-01-11T11:35:02;2.40;99.90
15638;DHT22;26604;53.596;10.042;2024-01-11T11:37:29;2.40;99.90
15638;DHT22;26604;53.596;10.042;2024-01-11T11:39:57;2.40;99.90
15638;DHT22;26604;53.596;10.042;2024-01-11T11:42:26;2.50;99.90
15638;DHT22;26604;53.596;10.042;2024-01-11T11:44:54;2.50;99.90
15638;DHT22;26604;53.596;10.042;2024-01-11T11:47:23;2.50;99.90
15638;DHT22;26604;53.596;10.042;2024-01-11T11:49:58;2.50;99.90
15638;DHT22;26604;53.596;10.042;2024-01-11T11:52:25;2.50;99.90
15638;DHT22;26604;53.596;10.042;2024-01-11T11:54:52;2.50;99.90
15638;DHT22;26604;53.596;10.042;2024-01-11T11:57:20;2.60;99.90
15638;DHT22;26604;53.596;10.042;2024-01-11T11:59:50;2.60;99.90
15638;DHT22;26604;53.596;10.042;2024-01-11T12:02:17;2.60;99.90
15638;DHT22;26604;53.596;10.042;2024-01-11T12:04:46;2.60;99.90
15638;DHT22;26604;53.596;10.042;2024-01-11T12:07:14;2.60;99.90
15638;DHT22;26604;53.596;10.042;2024-01-11T12:09:41;2.60;99.90
15638;DHT22;26604;53.596;10.042;2024-01-11T12:12:08;2.70;99.90
15638;DHT22;26604;53.596;10.042;2024-01-11T12:14:35;2.70;99.90
15638;DHT22;26604;53.596;10.042;2024-01-11T12:17:04;2.70;99.90
15638;DHT22;26604;53.596;10.042;2024-01-11T12:19:32;2.70;99.90
15638;DHT22;26604;53.596;10.042;2024-01-11T12:21:59;2.70;99.90
15638;DHT22;26604;53.596;10.042;2024-01-11T12:24:26;2.70;99.90
15638;DHT22;26604;53.596;10.042;2024-01-11T12:26:56;2.80;99.90
15638;DHT22;26604;53.596;10.042;2024-01-11T12:29:24;2.70;99.90
15638;DHT22;26604;53.596;10.042;2024-01-11T12:31:51;2.80;99.90
15638;DHT22;26604;53.596;10.042;2024-01-11T12:34:19;2.80;99.90
15638;DHT22;26604;53.596;10.042;2024-01-11T12:36:47;2.80;99.90
15638;DHT22;26604;53.596;10.042;2024-01-11T12:39:14;2.80;99.90
15638;DHT22;26604;53.596;10.042;2024-01-11T12:41:43;2.90;99.90
15638;DHT22;26604;53.596;10.042;2024-01-11T12:44:09;2.90;99.90
15638;DHT22;26604;53.596;10.042;2024-01-11T12:46:36;2.90;99.90
15638;DHT22;26604;53.596;10.042;2024-01-11T12:49:03;2.90;99.90
15638;DHT22;26604;53.596;10.042;2024-01-11T12:51:31;3.00;99.90
15638;DHT22;26604;53.596;10.042;2024-01-11T12:53:58;3.00;99.90
15638;DHT22;26604;53.596;10.042;2024-01-11T12:56:25;3.20;99.90
15638;DHT22;26604;53.596;10.042;2024-01-11T12:59:05;3.20;99.90
15638;DHT22;26604;53.596;10.042;2024-01-11T13:01:32;3.30;99.90
15638;DHT22;26604;53.596;10.042;2024-01-11T13:03:59;3.40;99.90
15638;DHT22;26604;53.596;10.042;2024-01-11T13:06:28;3.40;99.90
15638;DHT22;26604;53.596;10.042;2024-01-11T13:08:56;3.50;99.90
15638;DHT22;26604;53.596;10.042;2024-01-11T13:11:23;3.40;99.90
15638;DHT22;26604;53.596;10.042;2024-01-11T13:13:51;3.40;99.90
15638;DHT22;26604;53.596;10.042;2024-01-11T13:16:17;3.50;99.90
15638;DHT22;26604;53.596;10.042;2024-01-11T13:18:44;3.40;99.90
15638;DHT22;26604;53.596;10.042;2024-01-11T13:21:11;3.40;99.90
15638;DHT22;26604;53.596;10.042;2024-01-11T13:23:39;3.40;99.90
15638;DHT22;26604;53.596;10.042;2024-01-11T13:26:07;3.40;99.90
15638;DHT22;26604;53.596;10.042;2024-01-11T13:28:34;3.40;99.90
15638;DHT22;26604;53.596;10.042;2024-01-11T13:31:02;3.40;99.90
15638;DHT22;26604;53.596;10.042;2024-01-11T13:33:28;3.40;99.90
15638;DHT22;26604;53.596;10.042;2024-01-11T13:35:55;3.40;99.90
15638;DHT22;26604;53.596;10.042;2024-01-11T13:38:22;3.40;99.90
15638;DHT22;26604;53.596;10.042;2024-01-11T13:40:49;3.50;99.90
15638;DHT22;26604;53.596;10.042;2024-01-11T13:43:17;3.50;99.90
15638;DHT22;26604;53.596;10.042;2024-01-11T13:45:44;3.40;99.90
15638;DHT22;26604;53.596;10.042;2024-01-11T13:48:11;3.50;99.90
15638;DHT22;26604;53.596;10.042;2024-01-11T13:50:38;3.50;99.90
15638;DHT22;26604;53.596;10.042;2024-01-11T13:53:05;3.50;99.90
15638;DHT22;26604;53.596;10.042;2024-01-11T13:55:32;3.30;99.90
15638;DHT22;26604;53.596;10.042;2024-01-11T13:58:03;3.30;99.90
15638;DHT22;26604;53.596;10.042;2024-01-11T14:00:32;3.30;99.90
15638;DHT22;26604;53.596;10.042;2024-01-11T14:02:58;3.30;99.90
15638;DHT22;26604;53.596;10.042;2024-01-11T14:05:25;3.30;99.90
15638;DHT22;26604;53.596;10.042;2024-01-11T14:07:52;3.30;99.90
15638;DHT22;26604;53.596;10.042;2024-01-11T14:10:24;3.40;99.90
15638;DHT22;26604;53.596;10.042;2024-01-11T14:12:51;3.30;99.90
15638;DHT22;26604;53.596;10.042;2024-01-11T14:15:18;3.30;99.90
15638;DHT22;26604;53.596;10.042;2024-01-11T14:17:46;3.40;99.90
15638;DHT22;26604;53.596;10.042;2024-01-11T14:20:13;3.40;99.90
15638;DHT22;26604;53.596;10.042;2024-01-11T14:22:41;3.40;99.90
15638;DHT22;26604;53.596;10.042;2024-01-11T14:25:08;3.30;99.90
15638;DHT22;26604;53.596;10.042;2024-01-11T14:27:36;3.30;99.90
15638;DHT22;26604;53.596;10.042;2024-01-11T14:30:04;3.30;99.90
15638;DHT22;26604;53.596;10.042;2024-01-11T14:32:32;3.30;99.90
15638;DHT22;26604;53.596;10.042;2024-01-11T14:35:00;3.30;99.90
15638;DHT22;26604;53.596;10.042;2024-01-11T14:37:30;3.30;99.90
15638;DHT22;26604;53.596;10.042;2024-01-11T14:39:57;3.20;99.90
15638;DHT22;26604;53.596;10.042;2024-01-11T14:42:25;3.20;99.90
15638;DHT22;26604;53.596;10.042;2024-01-11T14:44:52;3.20;99.90
15638;DHT22;26604;53.596;10.042;2024-01-11T14:47:19;3.10;99.90
15638;DHT22;26604;53.596;10.042;2024-01-11T14:49:46;3.10;99.90
15638;DHT22;26604;53.596;10.042;2024-01-11T14:52:15;3.10;99.90
15638;DHT22;26604;53.596;10.042;2024-01-11T14:54:41;3.10;99.90
15638;DHT22;26604;53.596;10.042;2024-01-11T14:57:08;3.10;99.90
15638;DHT22;26604;53.596;10.042;2024-01-11T14:59:35;3.10;99.90
15638;DHT22;26604;53.596;10.042;2024-01-11T15:02:02;3.10;99.90
15638;DHT22;26604;53.596;10.042;2024-01-11T15:04:51;3.00;99.90
15638;DHT22;26604;53.596;10.042;2024-01-11T15:07:20;3.00;99.90
15638;DHT22;26604;53.596;10.042;2024-01-11T15:09:48;3.00;99.90
15638;DHT22;26604;53.596;10.042;2024-01-11T15:12:14;2.90;99.90
15638;DHT22;26604;53.596;10.042;2024-01-11T15:14:41;2.90;99.90
15638;DHT22;26604;53.596;10.042;2024-01-11T15:17:09;2.90;99.90
15638;DHT22;26604;53.596;10.042;2024-01-11T15:19:35;2.90;99.90
15638;DHT22;26604;53.596;10.042;2024-01-11T15:22:02;2.90;99.90
15638;DHT22;26604;53.596;10.042;2024-01-11T15:24:31;2.90;99.90
15638;DHT22;26604;53.596;10.042;2024-01-11T15:27:00;2.80;99.90
15638;DHT22;26604;53.596;10.042;2024-01-11T15:29:27;2.80;99.90